Terminal Aerodrome Forecast
Issued by NWS

Home | Current Version | Previous Version | Text Only | Print | Product List | Glossary On
Versions: 1 2 3 4 5 6 7 8 9 10 11 12 13 14 15 16 17
000
FTUS44 KTSA 040558 AAA
TAFFYV
TAF AMD
KFYV 040558Z 0406/0506 00000KT 1/2SM FG VV002
      TEMPO 0406/0410 3SM BR SCT002
     FM041400 VRB03KT P6SM SCT250
     FM041800 19005KT P6SM SCT050
     FM050100 00000KT P6SM FEW250=

USA.gov is the U.S. government's official web portal to all federal, state and local government web resources and services.